Time;durP1;ratioP1;P1;durP2;ratioP2;P2;SDS_P1;SDS_P2;PMS_P1;PMS_P2;Temp;Humidity;BMP_temperature;BMP_pressure;BME280_temperature;BME280_humidity;BME280_pressure;Samples;Min_cycle;Max_cycle;Signal;HPM_P1;HPM_P2
2020/12/20 00:00:56;;;;;;;72.37;23.27;;;;;;;;;;4968181;28;20553;-77
2020/12/20 00:03:22;;;;;;;79.47;38.90;;;;;;;;;;4964726;28;20259;-77
2020/12/20 00:05:48;;;;;;;74.07;26.43;;;;;;;;;;4958355;28;20260;-78
2020/12/20 00:08:14;;;;;;;103.77;22.17;;;;;;;;;;4967407;28;20207;-77
2020/12/20 00:10:40;;;;;;;85.80;21.43;;;;;;;;;;4973605;28;20565;-78
2020/12/20 00:13:06;;;;;;;84.80;20.40;;;;;;;;;;4958232;28;20543;-77
2020/12/20 00:15:32;;;;;;;59.43;20.40;;;;;;;;;;4971120;28;20180;-78
2020/12/20 00:17:58;;;;;;;48.73;21.47;;;;;;;;;;4977497;28;20176;-77
2020/12/20 00:20:24;;;;;;;51.37;18.80;;;;;;;;;;4976218;28;20571;-78
2020/12/20 00:22:50;;;;;;;37.03;17.07;;;;;;;;;;4957862;28;20204;-78
2020/12/20 00:25:16;;;;;;;33.30;16.93;;;;;;;;;;4967565;28;20173;-78
2020/12/20 00:27:43;;;;;;;28.70;15.67;;;;;;;;;;4977633;28;20180;-78
2020/12/20 00:30:10;;;;;;;73.63;14.47;;;;;;;;;;4977193;28;20734;-77
2020/12/20 00:32:36;;;;;;;59.60;13.93;;;;;;;;;;4966170;28;20173;-79
2020/12/20 00:35:04;;;;;;;50.10;14.70;;;;;;;;;;4971457;28;20588;-77
2020/12/20 00:37:30;;;;;;;29.20;15.00;;;;;;;;;;4977105;28;20677;-78
2020/12/20 00:39:57;;;;;;;60.90;17.13;;;;;;;;;;4977291;28;20204;-77
2020/12/20 00:42:23;;;;;;;55.97;15.57;;;;;;;;;;4964328;28;20205;-78
2020/12/20 00:44:50;;;;;;;35.73;14.17;;;;;;;;;;4961526;28;20180;-78
2020/12/20 00:47:16;;;;;;;63.90;16.57;;;;;;;;;;4972366;28;20177;-78
2020/12/20 00:49:42;;;;;;;51.90;16.37;;;;;;;;;;4957523;28;20390;-78
2020/12/20 00:52:09;;;;;;;58.07;17.27;;;;;;;;;;4964457;28;20524;-78
2020/12/20 00:54:36;;;;;;;31.10;17.13;;;;;;;;;;4977028;28;20195;-78
2020/12/20 00:57:03;;;;;;;40.90;18.67;;;;;;;;;;4969485;28;20185;-78
2020/12/20 00:59:29;;;;;;;40.00;17.20;;;;;;;;;;4969417;28;20235;-78
2020/12/20 01:01:59;;;;;;;40.50;17.33;;;;;;;;;;4963351;28;20186;-78
2020/12/20 01:04:25;;;;;;;29.13;17.03;;;;;;;;;;4976619;28;20230;-79
2020/12/20 01:06:57;;;;;;;41.93;16.10;;;;;;;;;;4963700;28;20264;-78
2020/12/20 01:09:24;;;;;;;36.40;16.00;;;;;;;;;;4949239;28;20694;-78
2020/12/20 01:11:50;;;;;;;26.10;15.10;;;;;;;;;;4964707;28;20203;-78
2020/12/20 01:14:16;;;;;;;31.50;15.37;;;;;;;;;;4975111;28;20209;-78
2020/12/20 01:16:42;;;;;;;25.20;15.53;;;;;;;;;;4975440;28;20185;-78
2020/12/20 01:19:09;;;;;;;23.83;14.60;;;;;;;;;;4960657;28;20208;-78
2020/12/20 01:21:35;;;;;;;27.13;15.07;;;;;;;;;;4957197;28;20189;-78
2020/12/20 01:24:02;;;;;;;22.30;14.93;;;;;;;;;;4970237;28;20208;-78
2020/12/20 01:26:28;;;;;;;23.33;15.60;;;;;;;;;;4976296;28;20183;-79
2020/12/20 01:28:55;;;;;;;24.87;16.27;;;;;;;;;;4976435;28;20204;-77
2020/12/20 01:31:22;;;;;;;25.57;15.37;;;;;;;;;;4958094;28;20185;-78
2020/12/20 01:33:48;;;;;;;36.97;17.00;;;;;;;;;;4967934;28;20184;-77
2020/12/20 01:36:15;;;;;;;28.57;18.00;;;;;;;;;;4959555;28;20542;-78
2020/12/20 01:38:42;;;;;;;29.17;17.23;;;;;;;;;;4966324;28;20212;-78
2020/12/20 01:41:08;;;;;;;29.87;17.70;;;;;;;;;;4976200;28;20184;-78
2020/12/20 01:43:41;;;;;;;28.67;18.50;;;;;;;;;;4976116;28;20674;-77
2020/12/20 01:46:11;;;;;;;26.70;17.40;;;;;;;;;;4962072;28;20525;-77
2020/12/20 01:48:37;;;;;;;28.57;17.40;;;;;;;;;;4966167;28;20216;-77
2020/12/20 01:51:04;;;;;;;30.07;18.27;;;;;;;;;;4963163;28;20177;-78
2020/12/20 01:53:30;;;;;;;29.37;18.53;;;;;;;;;;4961735;28;20190;-77
2020/12/20 01:55:59;;;;;;;26.73;17.57;;;;;;;;;;4964883;28;20188;-78
2020/12/20 01:58:26;;;;;;;28.93;16.87;;;;;;;;;;4958934;28;20196;-78
2020/12/20 02:00:52;;;;;;;29.70;17.53;;;;;;;;;;4974481;28;20195;-78
2020/12/20 02:03:19;;;;;;;28.63;17.17;;;;;;;;;;4975842;28;20208;-77
2020/12/20 02:05:45;;;;;;;26.83;16.90;;;;;;;;;;4971139;28;20189;-78
2020/12/20 02:08:12;;;;;;;23.57;15.53;;;;;;;;;;4966701;28;20284;-77
2020/12/20 02:10:38;;;;;;;26.30;16.03;;;;;;;;;;4973612;28;20211;-78
2020/12/20 02:13:04;;;;;;;25.77;15.60;;;;;;;;;;4975773;28;20267;-78
2020/12/20 02:15:31;;;;;;;26.43;16.17;;;;;;;;;;4974210;28;20212;-77
2020/12/20 02:17:57;;;;;;;26.63;16.57;;;;;;;;;;4975646;28;20242;-77
2020/12/20 02:20:23;;;;;;;23.80;16.03;;;;;;;;;;4975860;28;20189;-79
2020/12/20 02:22:49;;;;;;;29.20;16.73;;;;;;;;;;4971207;28;20200;-78
2020/12/20 02:25:16;;;;;;;27.17;16.93;;;;;;;;;;4967003;28;20228;-77
2020/12/20 02:27:42;;;;;;;26.40;16.73;;;;;;;;;;4959310;28;20169;-78
2020/12/20 02:30:08;;;;;;;26.03;16.43;;;;;;;;;;4963644;28;20200;-78
2020/12/20 02:32:34;;;;;;;60.33;27.03;;;;;;;;;;4974268;28;20734;-78
2020/12/20 02:35:01;;;;;;;21.70;15.13;;;;;;;;;;4962946;28;20647;-77
2020/12/20 02:37:27;;;;;;;27.27;16.73;;;;;;;;;;4975109;28;20187;-77
2020/12/20 02:39:54;;;;;;;54.00;25.20;;;;;;;;;;4974564;28;20200;-76
2020/12/20 02:42:20;;;;;;;44.87;22.23;;;;;;;;;;4974688;28;20184;-77
2020/12/20 02:44:46;;;;;;;37.73;19.43;;;;;;;;;;4974639;28;20300;-77
2020/12/20 02:47:13;;;;;;;36.03;19.43;;;;;;;;;;4970230;28;20260;-77
2020/12/20 02:49:39;;;;;;;46.73;22.23;;;;;;;;;;4970112;28;20625;-77
2020/12/20 02:52:05;;;;;;;40.50;21.33;;;;;;;;;;4974726;28;20224;-77
2020/12/20 02:54:31;;;;;;;30.20;17.37;;;;;;;;;;4974432;28;20669;-77
2020/12/20 02:56:57;;;;;;;31.57;18.20;;;;;;;;;;4974325;28;20184;-76
2020/12/20 02:59:23;;;;;;;32.70;18.77;;;;;;;;;;4974216;28;20214;-77
2020/12/20 03:01:49;;;;;;;29.20;16.53;;;;;;;;;;4955747;28;20185;-77
2020/12/20 03:04:16;;;;;;;27.83;16.77;;;;;;;;;;4960696;28;20613;-77
2020/12/20 03:06:42;;;;;;;30.10;16.37;;;;;;;;;;4962649;28;20516;-77
2020/12/20 03:09:09;;;;;;;22.70;15.80;;;;;;;;;;4958746;28;20251;-77
2020/12/20 03:11:35;;;;;;;26.60;16.27;;;;;;;;;;4974117;28;20242;-77
2020/12/20 03:14:01;;;;;;;19.77;13.90;;;;;;;;;;4974260;28;20190;-76
2020/12/20 03:16:27;;;;;;;24.07;15.23;;;;;;;;;;4967921;28;20184;-77
2020/12/20 03:18:54;;;;;;;18.67;13.47;;;;;;;;;;4968546;28;20239;-77
2020/12/20 03:21:21;;;;;;;21.90;14.97;;;;;;;;;;4974657;28;20213;-77
2020/12/20 03:23:47;;;;;;;23.80;15.43;;;;;;;;;;4969086;28;20208;-76
2020/12/20 03:26:14;;;;;;;26.37;15.60;;;;;;;;;;4953274;28;20189;-77
2020/12/20 03:28:40;;;;;;;25.90;15.63;;;;;;;;;;4951666;29;20197;-77
2020/12/20 03:31:06;;;;;;;22.17;15.33;;;;;;;;;;4972065;28;20180;-77
2020/12/20 03:33:32;;;;;;;25.13;15.87;;;;;;;;;;4976278;28;20188;-76
2020/12/20 03:35:58;;;;;;;24.90;16.10;;;;;;;;;;4977422;28;20188;-76
2020/12/20 03:38:25;;;;;;;25.20;15.57;;;;;;;;;;4977212;28;20666;-76
2020/12/20 03:40:51;;;;;;;21.60;14.67;;;;;;;;;;4970935;28;20272;-77
2020/12/20 03:43:17;;;;;;;23.63;15.20;;;;;;;;;;4976586;28;20223;-76
2020/12/20 03:45:43;;;;;;;23.57;15.87;;;;;;;;;;4977462;28;20185;-77
2020/12/20 03:48:10;;;;;;;25.00;16.33;;;;;;;;;;4959995;28;20187;-76
2020/12/20 03:50:36;;;;;;;18.80;13.83;;;;;;;;;;4983678;23;20312;-79
2020/12/20 03:53:02;;;;;;;22.97;15.87;;;;;;;;;;4961052;28;20236;-79
2020/12/20 03:55:28;;;;;;;21.17;15.53;;;;;;;;;;4968540;28;20188;-78
2020/12/20 03:57:54;;;;;;;21.27;14.93;;;;;;;;;;4961129;28;20189;-78
2020/12/20 04:00:21;;;;;;;23.53;15.40;;;;;;;;;;4980098;28;20564;-78
2020/12/20 04:02:48;;;;;;;23.03;15.13;;;;;;;;;;4980192;28;20223;-79
2020/12/20 04:05:14;;;;;;;22.77;14.87;;;;;;;;;;4979999;28;20173;-80
2020/12/20 04:07:42;;;;;;;19.10;14.00;;;;;;;;;;4979692;28;20191;-78
2020/12/20 04:10:08;;;;;;;25.87;16.10;;;;;;;;;;4960735;28;20201;-78
2020/12/20 04:12:34;;;;;;;25.10;16.40;;;;;;;;;;4978182;28;20176;-79
2020/12/20 04:15:00;;;;;;;24.60;15.37;;;;;;;;;;4980313;28;20192;-79
2020/12/20 04:17:27;;;;;;;24.60;16.57;;;;;;;;;;4980363;28;20192;-79
2020/12/20 04:19:53;;;;;;;24.27;16.23;;;;;;;;;;4962715;28;20223;-79
2020/12/20 04:22:19;;;;;;;24.07;16.20;;;;;;;;;;4980584;28;20563;-79
2020/12/20 04:24:45;;;;;;;22.77;16.40;;;;;;;;;;4980743;28;20539;-79
2020/12/20 04:27:12;;;;;;;22.87;16.00;;;;;;;;;;4979929;28;20188;-79
2020/12/20 04:29:38;;;;;;;23.33;15.60;;;;;;;;;;4980164;28;20675;-80
2020/12/20 04:32:05;;;;;;;20.10;14.23;;;;;;;;;;4980062;28;20558;-80
2020/12/20 04:34:31;;;;;;;22.07;15.07;;;;;;;;;;4979346;28;20177;-78
2020/12/20 04:36:58;;;;;;;25.33;16.47;;;;;;;;;;4980372;28;20591;-79
2020/12/20 04:39:24;;;;;;;20.83;14.73;;;;;;;;;;4962543;28;20216;-78
2020/12/20 04:41:50;;;;;;;23.37;15.83;;;;;;;;;;4980402;28;20180;-79
2020/12/20 04:44:17;;;;;;;22.17;15.77;;;;;;;;;;4977756;28;20216;-79
2020/12/20 04:46:44;;;;;;;21.83;14.90;;;;;;;;;;4980112;28;20176;-79
2020/12/20 04:49:11;;;;;;;27.03;16.27;;;;;;;;;;4979961;28;20181;-78
2020/12/20 04:51:38;;;;;;;21.43;14.90;;;;;;;;;;4979790;28;20191;-79
2020/12/20 04:54:05;;;;;;;24.30;15.87;;;;;;;;;;4978125;28;20191;-78
2020/12/20 04:56:36;;;;;;;22.83;14.77;;;;;;;;;;4979120;28;20187;-78
2020/12/20 04:59:02;;;;;;;22.17;15.17;;;;;;;;;;4978117;28;20239;-79
2020/12/20 05:01:29;;;;;;;23.60;15.97;;;;;;;;;;4965140;28;20270;-80
2020/12/20 05:03:55;;;;;;;26.50;15.67;;;;;;;;;;4963466;28;20208;-78
2020/12/20 05:06:21;;;;;;;34.33;17.93;;;;;;;;;;4958189;28;20189;-79
2020/12/20 05:08:47;;;;;;;28.27;16.77;;;;;;;;;;4960019;28;20231;-78
2020/12/20 05:11:46;;;;;;;27.40;16.63;;;;;;;;;;4976424;28;20188;-78
2020/12/20 05:14:13;;;;;;;25.23;16.20;;;;;;;;;;4956311;28;20215;-79
2020/12/20 05:16:40;;;;;;;28.60;17.30;;;;;;;;;;4977962;28;20181;-78
2020/12/20 05:19:07;;;;;;;22.60;15.20;;;;;;;;;;4978577;28;20244;-79
2020/12/20 05:21:35;;;;;;;21.40;14.80;;;;;;;;;;4969838;28;20550;-78
2020/12/20 05:24:01;;;;;;;27.13;16.50;;;;;;;;;;4976853;28;20215;-78
2020/12/20 05:26:31;;;;;;;25.97;16.00;;;;;;;;;;4978302;28;20181;-79
2020/12/20 05:29:08;;;;;;;27.43;15.93;;;;;;;;;;4979724;28;20243;-79
2020/12/20 05:31:34;;;;;;;28.53;15.53;;;;;;;;;;4978120;28;20176;-79
2020/12/20 05:34:00;;;;;;;24.87;15.37;;;;;;;;;;4979282;28;20216;-79
2020/12/20 05:36:27;;;;;;;27.67;16.27;;;;;;;;;;4979289;28;20188;-79
2020/12/20 05:38:53;;;;;;;30.77;17.47;;;;;;;;;;4979332;28;20278;-79
2020/12/20 05:41:30;;;;;;;30.10;15.97;;;;;;;;;;4978848;28;20579;-80
2020/12/20 05:44:13;;;;;;;28.10;17.57;;;;;;;;;;4977691;28;20207;-79
2020/12/20 05:46:42;;;;;;;30.17;17.30;;;;;;;;;;4977162;28;20191;-79
2020/12/20 05:49:15;;;;;;;43.87;21.73;;;;;;;;;;4974696;28;20185;-79
2020/12/20 05:52:01;;;;;;;78.40;31.40;;;;;;;;;;4977358;28;20726;-80
2020/12/20 05:54:30;;;;;;;30.10;16.93;;;;;;;;;;4977797;28;20643;-78
2020/12/20 05:57:26;;;;;;;31.83;18.17;;;;;;;;;;4978951;28;20249;-78
2020/12/20 05:59:53;;;;;;;31.70;17.43;;;;;;;;;;4970274;28;20231;-78
2020/12/20 06:02:19;;;;;;;41.43;20.10;;;;;;;;;;4978655;28;20677;-79
2020/12/20 06:04:47;;;;;;;42.23;20.80;;;;;;;;;;4978679;28;20644;-78
2020/12/20 06:07:14;;;;;;;29.57;16.53;;;;;;;;;;4978713;28;20271;-78
2020/12/20 06:09:54;;;;;;;34.07;18.80;;;;;;;;;;4978379;28;20697;-79
2020/12/20 06:12:22;;;;;;;32.50;17.53;;;;;;;;;;4978484;28;20205;-79
2020/12/20 06:14:49;;;;;;;35.70;19.10;;;;;;;;;;4978397;28;20580;-80
2020/12/20 06:17:21;;;;;;;34.83;18.63;;;;;;;;;;4978168;28;20243;-79
2020/12/20 06:19:50;;;;;;;34.40;18.67;;;;;;;;;;4978592;28;20259;-80
2020/12/20 06:22:37;;;;;;;38.83;19.93;;;;;;;;;;4978809;28;20187;-80
2020/12/20 06:25:04;;;;;;;37.23;20.63;;;;;;;;;;4976801;28;20276;-79
2020/12/20 06:27:32;;;;;;;39.47;21.30;;;;;;;;;;4978019;28;20205;-78
2020/12/20 06:29:59;;;;;;;41.07;21.60;;;;;;;;;;4978481;28;20304;-78
2020/12/20 06:32:43;;;;;;;40.87;21.93;;;;;;;;;;4976134;28;20651;-78
2020/12/20 06:35:15;;;;;;;39.30;21.67;;;;;;;;;;4960235;28;20229;-78
2020/12/20 06:37:45;;;;;;;37.47;20.03;;;;;;;;;;4973559;28;20184;-80
2020/12/20 06:40:12;;;;;;;38.27;20.30;;;;;;;;;;4977978;28;20607;-79
2020/12/20 06:42:40;;;;;;;39.70;20.40;;;;;;;;;;4977471;28;20203;-79
2020/12/20 06:45:20;;;;;;;55.40;26.43;;;;;;;;;;4974337;28;20176;-79
2020/12/20 06:47:46;;;;;;;69.33;31.07;;;;;;;;;;4977939;28;20227;-79
2020/12/20 06:50:12;;;;;;;66.47;28.60;;;;;;;;;;4976918;28;20302;-80
2020/12/20 06:52:45;;;;;;;117.47;44.20;;;;;;;;;;4978535;28;20207;-79
2020/12/20 06:55:13;;;;;;;87.97;35.60;;;;;;;;;;4978453;28;20206;-79
2020/12/20 06:57:58;;;;;;;39.43;19.30;;;;;;;;;;4982622;28;20204;-80
2020/12/20 07:00:43;;;;;;;44.23;21.73;;;;;;;;;;4982597;28;20278;-81
2020/12/20 07:03:09;;;;;;;49.63;26.27;;;;;;;;;;4983873;28;20295;-80
2020/12/20 07:05:35;;;;;;;56.20;29.07;;;;;;;;;;4982719;28;20212;-81
2020/12/20 07:08:12;;;;;;;76.00;31.90;;;;;;;;;;4981177;28;20183;-80
2020/12/20 07:10:45;;;;;;;80.70;27.07;;;;;;;;;;4982740;28;20278;-80
2020/12/20 07:13:12;;;;;;;64.13;24.23;;;;;;;;;;4981140;28;20184;-80
2020/12/20 07:15:45;;;;;;;61.33;24.67;;;;;;;;;;4982010;28;20212;-80
2020/12/20 07:18:32;;;;;;;66.63;23.07;;;;;;;;;;4982151;28;20199;-79
2020/12/20 07:20:58;;;;;;;74.60;24.50;;;;;;;;;;4975993;28;20197;-79
2020/12/20 07:23:24;;;;;;;79.17;28.43;;;;;;;;;;4961344;28;20275;-80
2020/12/20 07:25:52;;;;;;;58.43;24.90;;;;;;;;;;4976647;28;20204;-80
2020/12/20 07:28:18;;;;;;;64.70;24.83;;;;;;;;;;4981804;28;20185;-79
2020/12/20 07:30:45;;;;;;;92.33;34.50;;;;;;;;;;4982267;28;20200;-81
2020/12/20 07:33:12;;;;;;;57.07;23.53;;;;;;;;;;4982359;28;20196;-79
2020/12/20 07:35:44;;;;;;;63.33;23.17;;;;;;;;;;4982230;28;20546;-78
2020/12/20 07:38:10;;;;;;;47.20;22.17;;;;;;;;;;4981821;28;20177;-79
2020/12/20 07:40:36;;;;;;;62.50;24.90;;;;;;;;;;4980227;28;20200;-78
2020/12/20 07:43:03;;;;;;;69.67;30.97;;;;;;;;;;4982179;28;20200;-79
2020/12/20 07:45:29;;;;;;;84.17;30.03;;;;;;;;;;4979463;28;20179;-79
2020/12/20 07:47:55;;;;;;;58.33;23.30;;;;;;;;;;4981488;28;20271;-79
2020/12/20 07:50:22;;;;;;;47.13;20.67;;;;;;;;;;4981712;28;20258;-78
2020/12/20 07:52:49;;;;;;;83.73;35.07;;;;;;;;;;4975032;28;20181;-79
2020/12/20 07:55:16;;;;;;;87.67;36.83;;;;;;;;;;4981590;28;20180;-79
2020/12/20 07:57:45;;;;;;;62.87;28.27;;;;;;;;;;4981569;28;20212;-78
2020/12/20 08:00:12;;;;;;;62.67;20.30;;;;;;;;;;4981694;28;20304;-78
2020/12/20 08:02:38;;;;;;;49.00;22.63;;;;;;;;;;4980066;28;20562;-79
2020/12/20 08:05:11;;;;;;;55.30;21.90;;;;;;;;;;4979827;28;20207;-77
2020/12/20 08:07:38;;;;;;;63.13;21.27;;;;;;;;;;4981134;28;20181;-79
2020/12/20 08:10:05;;;;;;;102.77;41.23;;;;;;;;;;4980519;28;20207;-78
2020/12/20 08:12:35;;;;;;;53.57;22.10;;;;;;;;;;4974943;28;20227;-78
2020/12/20 08:15:07;;;;;;;77.67;29.00;;;;;;;;;;4962760;28;20188;-78
2020/12/20 08:17:36;;;;;;;95.17;25.67;;;;;;;;;;4963461;28;20255;-79
2020/12/20 08:20:06;;;;;;;72.43;24.37;;;;;;;;;;4960993;28;20200;-78
2020/12/20 08:22:33;;;;;;;59.83;22.40;;;;;;;;;;4961750;28;20177;-79
2020/12/20 08:25:00;;;;;;;47.13;20.50;;;;;;;;;;4980568;28;20230;-79
2020/12/20 08:27:27;;;;;;;43.20;20.17;;;;;;;;;;4981023;28;20183;-78
2020/12/20 08:29:54;;;;;;;42.67;17.60;;;;;;;;;;4979535;28;20235;-78
2020/12/20 08:32:21;;;;;;;41.87;18.63;;;;;;;;;;4981033;28;20189;-79
2020/12/20 08:34:48;;;;;;;40.93;18.70;;;;;;;;;;4981349;28;20188;-79
2020/12/20 08:37:16;;;;;;;61.70;32.70;;;;;;;;;;4981265;28;20189;-79
2020/12/20 08:39:42;;;;;;;57.03;24.17;;;;;;;;;;4980922;28;20204;-78
2020/12/20 08:42:12;;;;;;;39.93;17.60;;;;;;;;;;4981182;28;20191;-79
2020/12/20 08:44:39;;;;;;;34.97;18.47;;;;;;;;;;4978579;28;20233;-78
2020/12/20 08:47:07;;;;;;;40.17;18.67;;;;;;;;;;4979460;28;20189;-78
2020/12/20 08:49:32;;;;;;;41.47;17.60;;;;;;;;;;4980823;28;20216;-78
2020/12/20 08:52:06;;;;;;;47.07;18.97;;;;;;;;;;4980619;28;20219;-79
2020/12/20 08:54:32;;;;;;;42.07;17.50;;;;;;;;;;4978790;28;20659;-79
2020/12/20 08:57:10;;;;;;;29.50;14.63;;;;;;;;;;4980578;28;20195;-79
2020/12/20 08:59:40;;;;;;;30.23;17.27;;;;;;;;;;4980432;28;20697;-79
2020/12/20 09:02:08;;;;;;;46.90;17.33;;;;;;;;;;4967123;28;20220;-80
2020/12/20 09:04:35;;;;;;;41.53;17.13;;;;;;;;;;4979706;28;20600;-79
2020/12/20 09:07:06;;;;;;;33.47;15.77;;;;;;;;;;4980737;28;20185;-79
2020/12/20 09:09:32;;;;;;;26.47;16.27;;;;;;;;;;4979200;28;20283;-80
2020/12/20 09:12:13;;;;;;;30.63;17.67;;;;;;;;;;4979158;28;20550;-79
2020/12/20 09:14:39;;;;;;;31.73;17.23;;;;;;;;;;4966158;28;20184;-79
2020/12/20 09:17:05;;;;;;;30.37;17.53;;;;;;;;;;4981805;28;20623;-78
2020/12/20 09:19:31;;;;;;;32.73;15.97;;;;;;;;;;4972275;28;20204;-79
2020/12/20 09:21:57;;;;;;;23.40;14.17;;;;;;;;;;4979596;28;20212;-79
2020/12/20 09:24:25;;;;;;;32.67;17.63;;;;;;;;;;4980540;28;20204;-78
2020/12/20 09:26:59;;;;;;;37.60;19.10;;;;;;;;;;4979033;28;20597;-77
2020/12/20 09:29:25;;;;;;;42.37;19.70;;;;;;;;;;4979345;28;20196;-78
2020/12/20 09:31:53;;;;;;;31.97;19.70;;;;;;;;;;4978933;28;20184;-78
2020/12/20 09:34:19;;;;;;;40.70;22.17;;;;;;;;;;4970075;28;20186;-78
2020/12/20 09:36:46;;;;;;;42.37;20.97;;;;;;;;;;4960411;28;20196;-79
2020/12/20 09:39:13;;;;;;;37.13;20.43;;;;;;;;;;4946815;28;20209;-78
2020/12/20 09:41:39;;;;;;;42.13;22.27;;;;;;;;;;4940866;28;20185;-78
2020/12/20 09:44:05;;;;;;;43.57;22.40;;;;;;;;;;4941623;28;20225;-79
2020/12/20 09:46:35;;;;;;;42.10;22.60;;;;;;;;;;4965515;28;20179;-79
2020/12/20 09:49:02;;;;;;;40.00;23.33;;;;;;;;;;4972333;28;20240;-80
2020/12/20 09:51:30;;;;;;;42.27;22.73;;;;;;;;;;4969121;28;20220;-79
2020/12/20 09:53:56;;;;;;;46.70;24.23;;;;;;;;;;4965643;28;20648;-78
2020/12/20 09:56:23;;;;;;;49.37;25.50;;;;;;;;;;4966407;28;20209;-78
2020/12/20 09:58:49;;;;;;;47.27;24.63;;;;;;;;;;4962146;28;20200;-79
2020/12/20 10:01:16;;;;;;;47.60;26.33;;;;;;;;;;4962832;28;20208;-80
2020/12/20 10:03:42;;;;;;;51.07;28.33;;;;;;;;;;4972052;28;20215;-80
2020/12/20 10:06:09;;;;;;;51.30;28.10;;;;;;;;;;4964598;28;20558;-79
2020/12/20 10:08:35;;;;;;;56.73;28.90;;;;;;;;;;4959346;28;20189;-78
2020/12/20 10:11:01;;;;;;;55.43;30.13;;;;;;;;;;4977060;28;20199;-79
2020/12/20 10:13:28;;;;;;;54.03;28.83;;;;;;;;;;4978875;28;20184;-79
2020/12/20 10:15:54;;;;;;;58.17;29.67;;;;;;;;;;4974306;23;20173;-78
2020/12/20 10:18:20;;;;;;;56.60;29.43;;;;;;;;;;4934822;28;20232;-77
2020/12/20 10:20:46;;;;;;;53.80;29.67;;;;;;;;;;4935063;29;20648;-77
2020/12/20 10:23:13;;;;;;;56.93;30.37;;;;;;;;;;4938072;29;20213;-76
2020/12/20 10:25:40;;;;;;;55.60;28.87;;;;;;;;;;4952307;28;20184;-78
2020/12/20 10:28:06;;;;;;;49.57;28.27;;;;;;;;;;4951585;28;20178;-78
2020/12/20 10:30:33;;;;;;;50.17;27.80;;;;;;;;;;4954677;28;20177;-78
2020/12/20 10:32:59;;;;;;;53.43;28.40;;;;;;;;;;4936916;29;20185;-77
2020/12/20 10:35:27;;;;;;;49.97;27.67;;;;;;;;;;4954576;28;20181;-78
2020/12/20 10:37:54;;;;;;;52.80;28.03;;;;;;;;;;4942848;28;20201;-78
2020/12/20 10:40:21;;;;;;;50.77;27.33;;;;;;;;;;4943359;29;20667;-78
2020/12/20 10:42:47;;;;;;;54.50;26.50;;;;;;;;;;4941608;28;20700;-78
2020/12/20 10:45:14;;;;;;;46.90;26.83;;;;;;;;;;4955305;28;20212;-77
2020/12/20 10:47:40;;;;;;;54.40;28.73;;;;;;;;;;4948265;28;20197;-76
2020/12/20 10:50:07;;;;;;;58.43;29.07;;;;;;;;;;4942540;29;20896;-78
2020/12/20 10:52:33;;;;;;;54.43;26.77;;;;;;;;;;4908124;28;21249;-77
2020/12/20 10:55:00;;;;;;;49.00;25.87;;;;;;;;;;4856497;29;20178;-79
2020/12/20 10:57:26;;;;;;;48.50;26.20;;;;;;;;;;4945083;28;20209;-77
2020/12/20 10:59:53;;;;;;;52.53;28.37;;;;;;;;;;4936062;29;20589;-77
2020/12/20 11:02:19;;;;;;;58.63;29.73;;;;;;;;;;4946659;28;20890;-78
2020/12/20 11:04:45;;;;;;;61.33;29.90;;;;;;;;;;4952637;28;20692;-78
2020/12/20 11:07:11;;;;;;;59.97;29.13;;;;;;;;;;4937756;29;20201;-78
2020/12/20 11:09:37;;;;;;;65.10;33.10;;;;;;;;;;4935158;29;20182;-78
2020/12/20 11:12:04;;;;;;;58.67;32.57;;;;;;;;;;4927626;28;20189;-78
2020/12/20 11:14:32;;;;;;;63.40;32.57;;;;;;;;;;4935369;29;20193;-79
2020/12/20 11:16:58;;;;;;;83.00;42.10;;;;;;;;;;4933248;29;20269;-78
2020/12/20 11:19:25;;;;;;;74.93;37.00;;;;;;;;;;4936461;29;20190;-77
2020/12/20 11:21:51;;;;;;;72.03;35.13;;;;;;;;;;4936245;29;20328;-78
2020/12/20 11:24:18;;;;;;;65.40;33.33;;;;;;;;;;4936298;28;20241;-78
2020/12/20 11:26:45;;;;;;;67.87;34.17;;;;;;;;;;4944725;28;20665;-78
2020/12/20 11:29:13;;;;;;;74.03;34.40;;;;;;;;;;4955376;28;20548;-78
2020/12/20 11:31:39;;;;;;;64.17;32.53;;;;;;;;;;4953740;28;20181;-78
2020/12/20 11:34:06;;;;;;;59.43;32.40;;;;;;;;;;4941219;28;20182;-78
2020/12/20 11:36:33;;;;;;;50.53;28.80;;;;;;;;;;4942274;28;20204;-78
2020/12/20 11:38:59;;;;;;;46.93;27.57;;;;;;;;;;4955222;28;20193;-78
2020/12/20 11:41:26;;;;;;;49.43;27.30;;;;;;;;;;4950468;28;20279;-79
2020/12/20 11:43:52;;;;;;;48.27;27.67;;;;;;;;;;4949583;28;20205;-78
2020/12/20 11:46:19;;;;;;;50.13;28.53;;;;;;;;;;4950785;28;20217;-78
2020/12/20 11:48:45;;;;;;;48.20;26.63;;;;;;;;;;4957328;28;20178;-78
2020/12/20 11:51:13;;;;;;;45.80;25.90;;;;;;;;;;4944949;28;20205;-79
2020/12/20 11:53:39;;;;;;;39.23;22.83;;;;;;;;;;4945177;29;20196;-79
2020/12/20 11:56:06;;;;;;;35.17;22.10;;;;;;;;;;4948784;28;20237;-79
2020/12/20 11:58:32;;;;;;;32.23;21.43;;;;;;;;;;4956671;28;20181;-79
2020/12/20 12:00:59;;;;;;;31.50;19.07;;;;;;;;;;4940559;28;20187;-78
2020/12/20 12:03:25;;;;;;;25.43;19.10;;;;;;;;;;4940225;29;20542;-78
2020/12/20 12:05:51;;;;;;;26.57;18.50;;;;;;;;;;4943480;29;20181;-79
2020/12/20 12:08:17;;;;;;;27.37;18.87;;;;;;;;;;4940163;29;20186;-79
2020/12/20 12:10:46;;;;;;;30.10;19.47;;;;;;;;;;4957930;28;20189;-79
2020/12/20 12:13:12;;;;;;;34.80;21.67;;;;;;;;;;4956561;28;20181;-76
2020/12/20 12:15:39;;;;;;;29.77;19.57;;;;;;;;;;4934556;28;20246;-78
2020/12/20 12:18:05;;;;;;;31.40;21.23;;;;;;;;;;4934039;29;20274;-78
2020/12/20 12:20:31;;;;;;;34.53;22.20;;;;;;;;;;4935724;29;20531;-78
2020/12/20 12:22:58;;;;;;;33.33;20.00;;;;;;;;;;4932463;29;20651;-77
2020/12/20 12:25:25;;;;;;;32.23;20.40;;;;;;;;;;4931414;29;20719;-77
2020/12/20 12:27:51;;;;;;;26.97;18.53;;;;;;;;;;4934203;29;20688;-78
2020/12/20 12:30:17;;;;;;;27.27;19.27;;;;;;;;;;4929404;29;20186;-78
2020/12/20 12:32:43;;;;;;;24.00;17.10;;;;;;;;;;4934568;29;20189;-77
2020/12/20 12:35:11;;;;;;;25.20;17.50;;;;;;;;;;4947946;28;20716;-78
2020/12/20 12:37:37;;;;;;;27.63;17.73;;;;;;;;;;4931198;29;20207;-78
2020/12/20 12:40:05;;;;;;;25.27;18.27;;;;;;;;;;4929967;29;20210;-78
2020/12/20 12:42:32;;;;;;;24.70;18.27;;;;;;;;;;4926402;29;20225;-78
2020/12/20 12:44:59;;;;;;;29.13;19.30;;;;;;;;;;4935403;29;20189;-78
2020/12/20 12:47:25;;;;;;;32.07;20.23;;;;;;;;;;4935784;29;20202;-78
2020/12/20 12:49:51;;;;;;;32.97;20.60;;;;;;;;;;4942974;28;20182;-78
2020/12/20 12:52:17;;;;;;;32.83;21.97;;;;;;;;;;4933587;29;20217;-79
2020/12/20 12:54:43;;;;;;;32.17;22.03;;;;;;;;;;4936372;29;20194;-78
2020/12/20 12:57:09;;;;;;;36.47;23.73;;;;;;;;;;4937009;28;20204;-78
2020/12/20 12:59:37;;;;;;;36.73;24.03;;;;;;;;;;4946211;28;20645;-78
2020/12/20 13:02:03;;;;;;;35.03;23.93;;;;;;;;;;4933086;29;20189;-78
2020/12/20 13:04:29;;;;;;;31.60;21.50;;;;;;;;;;4942737;28;20210;-78
2020/12/20 13:06:56;;;;;;;34.63;22.40;;;;;;;;;;4934418;29;20197;-78
2020/12/20 13:09:22;;;;;;;33.47;22.67;;;;;;;;;;4932882;29;20195;-78
2020/12/20 13:11:48;;;;;;;31.50;22.00;;;;;;;;;;4936309;29;20186;-78
2020/12/20 13:14:14;;;;;;;29.30;20.33;;;;;;;;;;4932819;29;20206;-78
2020/12/20 13:16:40;;;;;;;30.60;21.10;;;;;;;;;;4931914;29;20213;-79
2020/12/20 13:19:06;;;;;;;26.57;18.83;;;;;;;;;;4933297;29;20219;-78
2020/12/20 13:21:32;;;;;;;23.07;18.33;;;;;;;;;;4949243;28;20281;-79
2020/12/20 13:23:58;;;;;;;23.90;17.60;;;;;;;;;;4944086;28;20330;-78
2020/12/20 13:26:24;;;;;;;24.37;18.83;;;;;;;;;;4933081;29;20205;-78
2020/12/20 13:28:51;;;;;;;23.50;18.60;;;;;;;;;;4933241;29;20187;-79
2020/12/20 13:31:18;;;;;;;24.80;19.07;;;;;;;;;;4924322;29;20701;-79
2020/12/20 13:33:44;;;;;;;25.30;19.10;;;;;;;;;;4929763;29;20190;-79
2020/12/20 13:36:11;;;;;;;25.47;18.73;;;;;;;;;;4931401;28;20209;-79
2020/12/20 13:38:37;;;;;;;24.70;17.70;;;;;;;;;;4933546;28;20269;-78
2020/12/20 13:41:04;;;;;;;20.97;16.20;;;;;;;;;;4927854;29;20193;-79
2020/12/20 13:43:31;;;;;;;18.17;14.93;;;;;;;;;;4931844;29;20657;-79
2020/12/20 13:45:57;;;;;;;19.87;16.20;;;;;;;;;;4934123;29;20281;-79
2020/12/20 13:48:24;;;;;;;17.80;15.43;;;;;;;;;;4941267;29;20184;-77
2020/12/20 13:50:51;;;;;;;20.53;15.83;;;;;;;;;;4933429;28;20181;-79
2020/12/20 13:53:17;;;;;;;21.23;15.97;;;;;;;;;;4956758;28;20191;-78
2020/12/20 13:55:48;;;;;;;19.20;16.70;;;;;;;;;;4934955;29;20186;-78
2020/12/20 13:58:14;;;;;;;18.93;15.70;;;;;;;;;;4947410;29;20216;-79
2020/12/20 14:00:40;;;;;;;19.73;16.77;;;;;;;;;;4953184;28;20217;-79
2020/12/20 14:03:06;;;;;;;20.07;15.73;;;;;;;;;;4954658;28;20288;-79
2020/12/20 14:05:32;;;;;;;18.70;15.30;;;;;;;;;;4953618;28;20173;-80
2020/12/20 14:07:58;;;;;;;20.23;15.87;;;;;;;;;;4937730;28;20587;-80
2020/12/20 14:10:25;;;;;;;19.97;16.27;;;;;;;;;;4924280;28;20232;-79
2020/12/20 14:12:51;;;;;;;22.43;17.43;;;;;;;;;;4954529;28;20181;-79
2020/12/20 14:15:17;;;;;;;22.43;17.50;;;;;;;;;;4948537;28;20181;-79
2020/12/20 14:17:43;;;;;;;22.73;18.03;;;;;;;;;;4936734;29;20221;-78